Time;durP1;ratioP1;P1;durP2;ratioP2;P2;SDS_P1;SDS_P2;PMS_P1;PMS_P2;Temp;Humidity;BMP_temperature;BMP_pressure;BME280_temperature;BME280_humidity;BME280_pressure;Samples;Min_cycle;Max_cycle;Signal;HPM_P1;HPM_P2
2023/09/27 00:01:47;;;;;;;;;;;;;;;-144.99;100.00;52289.13;5026959;28;20063;-64
2023/09/27 00:04:13;;;;;;;;;;;;;;;-144.99;100.00;52333.94;5029581;28;20050;-64
2023/09/27 00:06:41;;;;;;;;;;;;;;;-144.99;100.00;52254.47;5028089;28;19961;-65
2023/09/27 00:09:08;;;;;;;;;;;;;;;-144.99;100.00;52297.25;5026141;28;19972;-72
2023/09/27 00:11:35;;;;;;;;;;;;;;;-144.99;100.00;52289.13;5017508;28;19969;-65
2023/09/27 00:14:03;;;;;;;;;;;;;;;-144.99;100.00;52309.50;5022334;28;19998;-65
2023/09/27 00:16:29;;;;;;;;;;;;;;;-144.99;100.00;52280.97;5029706;28;20000;-65
2023/09/27 00:18:56;;;;;;;;;;;;;;;-144.99;100.00;52309.50;5026457;28;19953;-64
2023/09/27 00:21:22;;;;;;;;;;;;;;;-144.99;100.00;52313.56;5026144;28;20398;-65
2023/09/27 00:23:49;;;;;;;;;;;;;;;-144.99;100.00;52266.69;5022900;28;20112;-65
2023/09/27 00:26:15;;;;;;;;;;;;;;;-144.99;100.00;52297.25;5027454;28;20461;-65
2023/09/27 00:28:42;;;;;;;;;;;;;;;-144.99;100.00;52317.66;5020647;28;19998;-65
2023/09/27 00:31:09;;;;;;;;;;;;;;;-144.99;100.00;52342.09;5030422;28;19993;-64
2023/09/27 00:33:36;;;;;;;;;;;;;;;-144.99;100.00;52342.09;5029797;28;20306;-64
2023/09/27 00:36:03;;;;;;;;;;;;;;;-144.99;100.00;52350.25;5029867;28;19991;-64
2023/09/27 00:38:29;;;;;;;;;;;;;;;-144.99;100.00;52317.66;5028933;28;20028;-65
2023/09/27 00:40:55;;;;;;;;;;;;;;;-144.99;100.00;52301.34;5021017;28;20398;-64
2023/09/27 00:43:26;;;;;;;;;;;;;;;-144.99;100.00;52305.41;5021028;28;20024;-65
2023/09/27 00:45:53;;;;;;;;;;;;;;;-144.99;100.00;52372.69;5028258;28;20022;-67
2023/09/27 00:48:21;;;;;;;;;;;;;;;-144.99;100.00;52317.66;5029025;28;20009;-67
2023/09/27 00:50:47;;;;;;;;;;;;;;;-144.99;100.00;52317.66;5025387;28;19996;-66
2023/09/27 00:53:14;;;;;;;;;;;;;;;-144.99;100.00;52325.81;5028960;28;19950;-66
2023/09/27 00:55:41;;;;;;;;;;;;;;;-144.99;100.00;52336.00;5022541;28;20052;-66
2023/09/27 00:58:08;;;;;;;;;;;;;;;-144.99;100.00;52323.75;5025764;28;19946;-61
2023/09/27 01:00:34;;;;;;;;;;;;;;;-144.99;100.00;52333.94;5024227;28;20133;-63
2023/09/27 01:03:01;;;;;;;;;;;;;;;-144.99;100.00;52340.06;5027519;28;19995;-66
2023/09/27 01:05:29;;;;;;;;;;;;;;;-144.99;100.00;52293.19;5021456;28;19996;-68
2023/09/27 01:07:55;;;;;;;;;;;;;;;-144.99;100.00;52319.69;5027296;28;20058;-67
2023/09/27 01:10:22;;;;;;;;;;;;;;;-144.99;100.00;52340.06;5033981;28;20376;-67
2023/09/27 01:12:48;;;;;;;;;;;;;;;-144.99;100.00;52321.72;5019185;28;20440;-71
2023/09/27 01:15:15;;;;;;;;;;;;;;;-144.99;100.00;52289.13;5020729;28;19990;-69
2023/09/27 01:17:53;;;;;;;;;;;;;;;-144.99;100.00;52333.94;5025297;28;20038;-69
2023/09/27 01:20:20;;;;;;;;;;;;;;;-144.99;100.00;52305.41;5029645;28;20419;-69
2023/09/27 01:22:52;;;;;;;;;;;;;;;-144.99;100.00;52299.31;5023465;28;19937;-67
2023/09/27 01:25:22;;;;;;;;;;;;;;;-144.99;100.00;52327.84;5028765;28;19942;-70
2023/09/27 01:27:49;;;;;;;;;;;;;;;-144.99;100.00;52311.53;5027402;28;20101;-68
2023/09/27 01:30:15;;;;;;;;;;;;;;;-144.99;100.00;52348.22;5028595;28;20047;-68
2023/09/27 01:32:42;;;;;;;;;;;;;;;-144.99;100.00;52297.25;5025670;28;20031;-67
2023/09/27 01:35:09;;;;;;;;;;;;;;;-144.99;100.00;52317.66;5028949;28;19989;-69
2023/09/27 01:37:36;;;;;;;;;;;;;;;-144.99;100.00;52323.75;5023802;28;19997;-67
2023/09/27 01:40:09;;;;;;;;;;;;;;;-144.99;100.00;52287.06;5017166;28;20336;-66
2023/09/27 01:42:37;;;;;;;;;;;;;;;-144.99;100.00;52378.78;5026343;28;19990;-66
2023/09/27 01:45:04;;;;;;;;;;;;;;;-144.99;100.00;52331.91;5028102;28;20000;-67
2023/09/27 01:47:30;;;;;;;;;;;;;;;-144.99;100.00;52354.34;5019311;28;20012;-69
2023/09/27 01:49:57;;;;;;;;;;;;;;;-144.99;100.00;52336.00;5027404;28;20053;-67
2023/09/27 01:52:23;;;;;;;;;;;;;;;-144.99;100.00;52317.66;5025642;28;19986;-66
2023/09/27 01:54:50;;;;;;;;;;;;;;;-144.99;100.00;52317.66;5021784;28;20332;-67
2023/09/27 01:57:18;;;;;;;;;;;;;;;-144.99;100.00;52329.88;5024288;28;19951;-66
2023/09/27 01:59:44;;;;;;;;;;;;;;;-144.99;100.00;52348.22;5028234;28;20004;-67
2023/09/27 02:02:11;;;;;;;;;;;;;;;-144.99;100.00;52309.50;5024864;28;20487;-66
2023/09/27 02:04:37;;;;;;;;;;;;;;;-144.99;100.00;52348.22;5023926;28;19946;-66
2023/09/27 02:07:04;;;;;;;;;;;;;;;-144.99;100.00;52323.75;5028824;28;19948;-67
2023/09/27 02:09:31;;;;;;;;;;;;;;;-144.99;100.00;52315.59;5038342;28;20484;-66
2023/09/27 02:11:57;;;;;;;;;;;;;;;-144.99;100.00;52305.41;5029402;28;19949;-67
2023/09/27 02:14:25;;;;;;;;;;;;;;;-144.99;100.00;52276.88;5027421;28;20446;-66
2023/09/27 02:16:51;;;;;;;;;;;;;;;-144.99;100.00;52317.66;5032090;28;19986;-65
2023/09/27 02:19:18;;;;;;;;;;;;;;;-144.99;100.00;52340.06;5018988;28;20012;-66
2023/09/27 02:21:44;;;;;;;;;;;;;;;-144.99;100.00;52305.41;5031722;28;20470;-66
2023/09/27 02:24:11;;;;;;;;;;;;;;;-144.99;100.00;52305.41;5027734;28;19997;-64
2023/09/27 02:26:38;;;;;;;;;;;;;;;-144.99;100.00;52336.00;5032061;28;19944;-64
2023/09/27 02:29:08;;;;;;;;;;;;;;;-144.99;100.00;52329.88;5032016;28;20280;-63
2023/09/27 02:31:36;;;;;;;;;;;;;;;-144.99;100.00;52319.69;5032089;28;19946;-63
2023/09/27 02:34:03;;;;;;;;;;;;;;;-144.99;100.00;52342.09;5028974;28;19950;-63
2023/09/27 02:36:30;;;;;;;;;;;;;;;-144.99;100.00;52342.09;5028038;28;19950;-64
2023/09/27 02:38:56;;;;;;;;;;;;;;;-144.99;100.00;52325.81;5031408;28;19941;-63
2023/09/27 02:41:23;;;;;;;;;;;;;;;-144.99;100.00;52366.56;5031468;28;20359;-64
2023/09/27 02:43:49;;;;;;;;;;;;;;;-144.99;100.00;52301.34;5027546;28;19938;-63
2023/09/27 02:46:15;;;;;;;;;;;;;;;-144.99;100.00;52313.56;5029967;28;20030;-63
2023/09/27 02:48:43;;;;;;;;;;;;;;;-144.99;100.00;52391.03;5022691;28;20068;-62
2023/09/27 02:51:14;;;;;;;;;;;;;;;-144.99;100.00;52283.00;5029713;28;19976;-63
2023/09/27 02:53:41;;;;;;;;;;;;;;;-144.99;100.00;52340.06;5029456;28;19983;-63
2023/09/27 02:56:08;;;;;;;;;;;;;;;-144.99;100.00;52338.03;5025185;28;20419;-63
2023/09/27 02:58:34;;;;;;;;;;;;;;;-144.99;100.00;52297.25;5028856;28;20447;-64
2023/09/27 03:01:01;;;;;;;;;;;;;;;-144.99;100.00;52305.41;5031119;28;19974;-64
2023/09/27 03:03:30;;;;;;;;;;;;;;;-144.99;100.00;52338.03;5030267;28;19988;-65
2023/09/27 03:05:58;;;;;;;;;;;;;;;-144.99;100.00;52356.38;5022885;28;19945;-66
2023/09/27 03:08:24;;;;;;;;;;;;;;;-144.99;100.00;52333.94;5026540;28;19960;-65
2023/09/27 03:10:51;;;;;;;;;;;;;;;-144.99;100.00;52329.88;5032341;28;20127;-65
2023/09/27 03:13:18;;;;;;;;;;;;;;;-144.99;100.00;52327.84;5015953;28;19964;-66
2023/09/27 03:15:45;;;;;;;;;;;;;;;-144.99;100.00;52325.81;5022432;28;20309;-71
2023/09/27 03:18:13;;;;;;;;;;;;;;;-144.99;100.00;52399.19;5029924;28;19956;-70
2023/09/27 03:20:39;;;;;;;;;;;;;;;-144.99;100.00;52325.81;5029267;28;20387;-71
2023/09/27 03:23:07;;;;;;;;;;;;;;;-144.99;100.00;52309.50;5025905;28;19997;-71
2023/09/27 03:25:34;;;;;;;;;;;;;;;-144.99;100.00;52382.88;5030291;28;20349;-71
2023/09/27 03:28:00;;;;;;;;;;;;;;;-144.99;100.00;52317.66;5025288;28;20380;-65
2023/09/27 03:30:27;;;;;;;;;;;;;;;-144.99;100.00;52325.81;5027381;28;19963;-65
2023/09/27 03:32:53;;;;;;;;;;;;;;;-144.99;100.00;52329.88;5022714;28;20465;-65
2023/09/27 03:35:20;;;;;;;;;;;;;;;-144.99;100.00;52336.00;5030400;28;20030;-66
2023/09/27 03:37:47;;;;;;;;;;;;;;;-144.99;100.00;52382.88;5029441;28;19970;-66
2023/09/27 03:40:14;;;;;;;;;;;;;;;-144.99;100.00;52327.84;5022041;28;19970;-63
2023/09/27 03:42:45;;;;;;;;;;;;;;;-144.99;100.00;52370.63;5030357;28;19959;-64
2023/09/27 03:45:12;;;;;;;;;;;;;;;-144.99;100.00;52315.59;5016968;28;20027;-65
2023/09/27 03:47:39;;;;;;;;;;;;;;;-144.99;100.00;52309.50;5027312;28;20347;-63
2023/09/27 03:50:06;;;;;;;;;;;;;;;-144.99;100.00;52362.50;5029011;28;20052;-64
2023/09/27 03:52:32;;;;;;;;;;;;;;;-144.99;100.00;52350.25;5030138;28;20478;-64
2023/09/27 03:54:59;;;;;;;;;;;;;;;-144.99;100.00;52342.09;5023751;28;19951;-64
2023/09/27 03:57:26;;;;;;;;;;;;;;;-144.99;100.00;52370.63;5021918;28;20040;-63
2023/09/27 03:59:53;;;;;;;;;;;;;;;-144.99;100.00;52372.69;5022581;28;20391;-63
2023/09/27 04:02:20;;;;;;;;;;;;;;;-144.99;100.00;52382.88;5023338;28;19986;-63
2023/09/27 04:04:46;;;;;;;;;;;;;;;-144.99;100.00;52354.34;5024721;28;19991;-63
2023/09/27 04:07:12;;;;;;;;;;;;;;;-144.99;100.00;52344.16;5022486;28;19992;-63
2023/09/27 04:09:39;;;;;;;;;;;;;;;-144.99;100.00;52376.75;5030933;28;20009;-64
2023/09/27 04:12:06;;;;;;;;;;;;;;;-144.99;100.00;52374.72;5019778;28;19993;-63
2023/09/27 04:14:33;;;;;;;;;;;;;;;-144.99;100.00;52350.25;5029421;28;20083;-63
2023/09/27 04:17:01;;;;;;;;;;;;;;;-144.99;100.00;52374.72;5028085;28;20003;-63
2023/09/27 04:19:28;;;;;;;;;;;;;;;-144.99;100.00;52358.41;5025627;28;20325;-64
2023/09/27 04:21:54;;;;;;;;;;;;;;;-144.99;100.00;52354.34;5025906;28;19958;-63
2023/09/27 04:24:21;;;;;;;;;;;;;;;-144.99;100.00;52313.56;5029196;28;20385;-64
2023/09/27 04:26:48;;;;;;;;;;;;;;;-144.99;100.00;52372.69;5029476;28;19990;-62
2023/09/27 04:29:15;;;;;;;;;;;;;;;-144.99;100.00;52342.09;5026697;28;20357;-63
2023/09/27 04:31:42;;;;;;;;;;;;;;;-144.99;100.00;52352.28;5019766;28;19947;-64
2023/09/27 04:34:09;;;;;;;;;;;;;;;-144.99;100.00;52350.25;5022581;28;20011;-64
2023/09/27 04:36:36;;;;;;;;;;;;;;;-144.99;100.00;52391.03;5029440;28;19973;-62
2023/09/27 04:39:05;;;;;;;;;;;;;;;-144.99;100.00;52317.66;5028873;28;20067;-61
2023/09/27 04:41:31;;;;;;;;;;;;;;;-144.99;100.00;52356.38;5026303;28;19948;-62
2023/09/27 04:43:58;;;;;;;;;;;;;;;-144.99;100.00;52323.75;5023108;28;20379;-61
2023/09/27 04:46:25;;;;;;;;;;;;;;;-144.99;100.00;52366.56;5020378;28;20333;-68
2023/09/27 04:48:52;;;;;;;;;;;;;;;-144.99;100.00;52354.34;5023969;28;20021;-68
2023/09/27 04:51:19;;;;;;;;;;;;;;;-144.99;100.00;52374.72;5029087;28;19976;-68
2023/09/27 04:53:45;;;;;;;;;;;;;;;-144.99;100.00;52354.34;5026707;28;20391;-67
2023/09/27 04:56:12;;;;;;;;;;;;;;;-144.99;100.00;52370.63;5028009;28;19981;-67
2023/09/27 04:58:39;;;;;;;;;;;;;;;-144.99;100.00;52370.63;5028961;28;19965;-66
2023/09/27 05:01:05;;;;;;;;;;;;;;;-144.99;100.00;52354.34;5019641;28;19957;-66
2023/09/27 05:03:32;;;;;;;;;;;;;;;-144.99;100.00;52338.03;5026618;28;19941;-66
2023/09/27 05:06:00;;;;;;;;;;;;;;;-144.99;100.00;52342.09;5038287;23;20028;-63
2023/09/27 05:08:26;;;;;;;;;;;;;;;-144.99;100.00;52376.75;5043146;28;20097;-63
2023/09/27 05:10:54;;;;;;;;;;;;;;;-144.99;100.00;52352.28;5032606;28;19990;-62
2023/09/27 05:13:21;;;;;;;;;;;;;;;-144.99;100.00;52366.56;5023035;28;19999;-63
2023/09/27 05:15:48;;;;;;;;;;;;;;;-144.99;100.00;52348.22;5021624;28;19967;-65
2023/09/27 05:18:14;;;;;;;;;;;;;;;-144.99;100.00;52397.13;5027931;28;20357;-66
2023/09/27 05:20:41;;;;;;;;;;;;;;;-144.99;100.00;52309.50;5028213;28;19971;-64
2023/09/27 05:23:08;;;;;;;;;;;;;;;-144.99;100.00;52338.03;5026217;28;20052;-64
2023/09/27 05:25:35;;;;;;;;;;;;;;;-144.99;100.00;52384.91;5026196;28;19979;-63
2023/09/27 05:28:01;;;;;;;;;;;;;;;-144.99;100.00;52378.78;5026639;28;20069;-65
2023/09/27 05:30:28;;;;;;;;;;;;;;;-144.99;100.00;52370.63;5019072;28;19968;-65
2023/09/27 05:32:54;;;;;;;;;;;;;;;-144.99;100.00;52364.53;5027349;28;20014;-64
2023/09/27 05:35:21;;;;;;;;;;;;;;;-144.99;100.00;52301.34;5027954;28;19939;-65
2023/09/27 05:37:49;;;;;;;;;;;;;;;-144.99;100.00;52372.69;5023957;28;19981;-65
2023/09/27 05:40:17;;;;;;;;;;;;;;;-144.99;100.00;52317.66;5025675;28;19965;-65
2023/09/27 05:42:43;;;;;;;;;;;;;;;-144.99;100.00;52346.19;5026895;28;20463;-64
2023/09/27 05:45:11;;;;;;;;;;;;;;;-144.99;100.00;52342.09;5028180;28;19979;-63
2023/09/27 05:47:38;;;;;;;;;;;;;;;-144.99;100.00;52358.41;5028974;28;20366;-64
2023/09/27 05:50:05;;;;;;;;;;;;;;;-144.99;100.00;52356.38;5031242;28;20061;-65
2023/09/27 05:52:33;;;;;;;;;;;;;;;-144.99;100.00;52338.03;5031636;28;19951;-65
2023/09/27 05:54:59;;;;;;;;;;;;;;;-144.99;100.00;52344.16;5030913;28;19951;-65
2023/09/27 05:57:27;;;;;;;;;;;;;;;-144.99;100.00;52366.56;5029016;28;19946;-64
2023/09/27 05:59:54;;;;;;;;;;;;;;;-144.99;100.00;52321.72;5029458;28;19981;-62
2023/09/27 06:02:30;;;;;;;;;;;;;;;-144.99;100.00;52323.75;5031101;28;20560;-62
2023/09/27 06:04:56;;;;;;;;;;;;;;;-144.99;100.00;52327.84;5031759;28;19942;-61
2023/09/27 06:07:23;;;;;;;;;;;;;;;-144.99;100.00;52317.66;5022830;28;19946;-61
2023/09/27 06:09:50;;;;;;;;;;;;;;;-144.99;100.00;52358.41;5033049;28;20412;-61
2023/09/27 06:12:16;;;;;;;;;;;;;;;-144.99;100.00;52333.94;5029081;28;19941;-62
2023/09/27 06:14:44;;;;;;;;;;;;;;;-144.99;100.00;52321.72;5026366;28;20418;-60
2023/09/27 06:17:15;;;;;;;;;;;;;;;-144.99;100.00;52333.94;5031524;28;20047;-63
2023/09/27 06:19:42;;;;;;;;;;;;;;;-144.99;100.00;52354.34;5021261;28;20014;-61
2023/09/27 06:22:08;;;;;;;;;;;;;;;-144.99;100.00;52319.69;5030224;28;20374;-61
2023/09/27 06:24:35;;;;;;;;;;;;;;;-144.99;100.00;52370.63;5031765;28;20016;-61
2023/09/27 06:27:01;;;;;;;;;;;;;;;-144.99;100.00;52317.66;5031685;28;19943;-61
2023/09/27 06:29:28;;;;;;;;;;;;;;;-144.99;100.00;52305.41;5031556;28;20044;-61
2023/09/27 06:31:56;;;;;;;;;;;;;;;-144.99;100.00;52283.00;5028172;28;19939;-63
2023/09/27 06:34:23;;;;;;;;;;;;;;;-144.99;100.00;52321.72;5021067;28;20381;-63
2023/09/27 06:36:51;;;;;;;;;;;;;;;-144.99;100.00;52285.03;5026738;28;19943;-64
2023/09/27 06:39:19;;;;;;;;;;;;;;;-144.99;100.00;52317.66;5030835;28;19963;-64
2023/09/27 06:41:46;;;;;;;;;;;;;;;-144.99;100.00;52321.72;5026594;28;20045;-65
2023/09/27 06:44:13;;;;;;;;;;;;;;;-144.99;100.00;52333.94;5023240;28;19951;-65
2023/09/27 06:46:40;;;;;;;;;;;;;;;-144.99;100.00;52342.09;5030468;28;19949;-65
2023/09/27 06:49:08;;;;;;;;;;;;;;;-144.99;100.00;52278.91;5029916;28;20434;-64
2023/09/27 06:51:34;;;;;;;;;;;;;;;-144.99;100.00;52295.22;5029196;28;20261;-63
2023/09/27 06:54:02;;;;;;;;;;;;;;;-144.99;100.00;52313.56;5027283;28;19941;-65
2023/09/27 06:56:28;;;;;;;;;;;;;;;-144.99;100.00;52289.13;5027707;28;19952;-66
2023/09/27 06:58:56;;;;;;;;;;;;;;;-144.99;100.00;52297.25;5022603;28;19992;-60
2023/09/27 07:01:24;;;;;;;;;;;;;;;-144.99;100.00;52301.34;5028005;28;20225;-67
2023/09/27 07:03:51;;;;;;;;;;;;;;;-144.99;100.00;52260.56;5024254;28;20188;-66
2023/09/27 07:06:19;;;;;;;;;;;;;;;-144.99;100.00;52297.25;5028695;28;19983;-66
2023/09/27 07:08:52;;;;;;;;;;;;;;;-144.99;100.00;52264.66;5028607;28;19942;-67
2023/09/27 07:11:19;;;;;;;;;;;;;;;-144.99;100.00;52329.88;5021742;28;20024;-68
2023/09/27 07:13:46;;;;;;;;;;;;;;;-144.99;100.00;52280.97;5027260;28;20386;-65
2023/09/27 07:16:20;;;;;;;;;;;;;;;-144.99;100.00;52264.66;5029308;28;19965;-68
2023/09/27 07:18:47;;;;;;;;;;;;;;;-144.99;100.00;52313.56;5018089;28;19951;-69
2023/09/27 07:21:14;;;;;;;;;;;;;;;-144.99;98.80;52301.34;5028921;28;19949;-68
2023/09/27 07:23:42;;;;;;;;;;;;;;;-144.99;97.72;52287.06;5024612;28;20008;-68
2023/09/27 07:26:09;;;;;;;;;;;;;;;-144.99;97.17;52293.19;5022439;28;20366;-69
2023/09/27 07:28:35;;;;;;;;;;;;;;;-144.99;96.38;52276.88;5029502;28;19978;-68
2023/09/27 07:31:02;;;;;;;;;;;;;;;-144.99;95.25;52276.88;5023983;28;19968;-68
2023/09/27 07:33:31;;;;;;;;;;;;;;;-144.99;94.10;52297.25;5028865;28;20422;-68
2023/09/27 07:35:58;;;;;;;;;;;;;;;-144.99;93.96;52260.56;5026308;28;19968;-68
2023/09/27 07:38:24;;;;;;;;;;;;;;;-144.99;93.64;52276.88;5020764;28;20008;-68
2023/09/27 07:40:52;;;;;;;;;;;;;;;-144.99;92.53;52248.34;5027717;28;19997;-68
2023/09/27 07:43:19;;;;;;;;;;;;;;;-144.99;92.24;52276.88;5028978;28;19948;-60
2023/09/27 07:45:47;;;;;;;;;;;;;;;-144.99;91.75;52256.50;5025915;28;19995;-62
2023/09/27 07:48:14;;;;;;;;;;;;;;;-144.99;90.53;52272.81;5028634;28;19942;-62
2023/09/27 07:50:41;;;;;;;;;;;;;;;-144.99;89.99;52234.09;5029332;28;20480;-63
2023/09/27 07:53:08;;;;;;;;;;;;;;;-144.99;88.89;52240.19;5025502;28;20033;-62
2023/09/27 07:55:43;;;;;;;;;;;;;;;-144.99;87.70;52252.44;5026229;28;19953;-63
2023/09/27 07:58:12;;;;;;;;;;;;;;;-144.99;87.88;52240.19;5024495;28;19975;-62
2023/09/27 08:00:40;;;;;;;;;;;;;;;-144.99;86.95;52227.97;5025239;28;20211;-62
2023/09/27 08:03:08;;;;;;;;;;;;;;;-144.99;86.07;52232.03;5027170;28;20345;-63
2023/09/27 08:05:42;;;;;;;;;;;;;;;-144.99;84.43;52248.34;5022807;28;20016;-63
2023/09/27 08:08:09;;;;;;;;;;;;;;;-144.99;84.56;52232.03;5025501;28;19944;-63
2023/09/27 08:10:36;;;;;;;;;;;;;;;-144.99;83.45;52219.81;5019073;28;20061;-62
2023/09/27 08:13:04;;;;;;;;;;;;;;;-144.99;83.44;52227.97;5022514;28;20116;-63
2023/09/27 08:15:32;;;;;;;;;;;;;;;-144.99;82.48;52227.97;5020567;28;19948;-63
2023/09/27 08:17:58;;;;;;;;;;;;;;;-144.99;81.84;52238.16;5015269;28;20318;-72
2023/09/27 08:20:25;;;;;;;;;;;;;;;-144.99;80.54;52242.22;5015473;28;20089;-70
2023/09/27 08:22:51;;;;;;;;;;;;;;;-144.99;80.59;52248.34;5013663;28;19992;-68
2023/09/27 08:25:18;;;;;;;;;;;;;;;-144.99;79.94;52254.47;5016197;28;20036;-68
2023/09/27 08:27:45;;;;;;;;;;;;;;;-144.99;78.56;52191.28;5015443;28;20474;-69
2023/09/27 08:30:12;;;;;;;;;;;;;;;-144.99;77.52;52240.19;5014658;28;19970;-70
2023/09/27 08:32:40;;;;;;;;;;;;;;;-144.99;78.63;52207.59;5014365;28;20113;-71
2023/09/27 08:35:07;;;;;;;;;;;;;;;-144.99;78.98;52236.13;5015013;28;20352;-71
2023/09/27 08:37:34;;;;;;;;;;;;;;;-144.99;78.61;52232.03;5018672;28;19946;-74
2023/09/27 08:40:00;;;;;;;;;;;;;;;-144.99;78.08;52227.97;5027506;28;20378;-71
2023/09/27 08:42:28;;;;;;;;;;;;;;;-144.99;78.10;52207.59;5028305;28;20394;-71
2023/09/27 08:44:55;;;;;;;;;;;;;;;-144.99;78.22;52232.03;5028621;28;19946;-70
2023/09/27 08:47:23;;;;;;;;;;;;;;;-144.99;77.27;52211.66;5028411;28;19938;-71
2023/09/27 08:49:51;;;;;;;;;;;;;;;-144.99;76.14;52215.75;5021685;28;20040;-71
2023/09/27 08:52:18;;;;;;;;;;;;;;;-144.99;75.31;52211.66;5028466;28;20022;-70
2023/09/27 08:54:44;;;;;;;;;;;;;;;-144.99;75.68;52211.66;5027590;28;20375;-70
2023/09/27 08:57:12;;;;;;;;;;;;;;;-144.99;75.41;52193.31;5021435;28;20412;-69
2023/09/27 08:59:39;;;;;;;;;;;;;;;-144.99;74.60;52183.13;5028878;28;20045;-70
2023/09/27 09:02:06;;;;;;;;;;;;;;;-144.99;72.96;52177.00;5023279;28;20192;-69
2023/09/27 09:04:33;;;;;;;;;;;;;;;-144.99;72.26;52207.59;5025857;28;19981;-69
2023/09/27 09:07:03;;;;;;;;;;;;;;;-144.99;72.00;52209.63;5024436;28;19942;-69
2023/09/27 09:09:30;;;;;;;;;;;;;;;-144.99;71.92;52197.41;5036050;28;19955;-69
2023/09/27 09:11:58;;;;;;;;;;;;;;;-144.99;71.49;52179.06;5018995;28;20323;-69
2023/09/27 09:14:38;;;;;;;;;;;;;;;-144.99;71.35;52195.34;5024115;28;20015;-69
2023/09/27 09:17:04;;;;;;;;;;;;;;;-144.99;70.48;52191.28;5024054;28;19964;-70
2023/09/27 09:19:32;;;;;;;;;;;;;;;-144.99;70.71;52170.91;5024877;28;20013;-69
2023/09/27 09:21:59;;;;;;;;;;;;;;;-144.99;69.89;52140.31;5026548;28;20480;-69
2023/09/27 09:24:28;;;;;;;;;;;;;;;-144.99;68.90;52150.53;5030025;28;19947;-69
2023/09/27 09:27:04;;;;;;;;;;;;;;;-144.99;67.42;52138.28;5022373;28;20234;-69
2023/09/27 09:29:44;;;;;;;;;;;;;;;-144.99;66.81;52195.34;5025622;28;20050;-68
2023/09/27 09:32:11;;;;;;;;;;;;;;;-144.99;68.19;52189.25;5030825;28;20387;-68
2023/09/27 09:34:40;;;;;;;;;;;;;;;-144.99;67.72;52181.09;5023957;28;19941;-69
2023/09/27 09:37:15;;;;;;;;;;;;;;;-144.99;66.56;52134.22;5030883;28;19992;-69
2023/09/27 09:39:43;;;;;;;;;;;;;;;-144.99;67.29;52162.75;5032012;28;19965;-69
2023/09/27 09:42:09;;;;;;;;;;;;;;;-144.99;66.79;52170.91;5031729;28;20349;-69
2023/09/27 09:44:36;;;;;;;;;;;;;;;-144.99;66.88;52177.00;5028045;28;20281;-68
2023/09/27 09:47:10;;;;;;;;;;;;;;;-144.99;65.36;52138.28;5027795;28;19959;-68
2023/09/27 09:49:36;;;;;;;;;;;;;;;-144.99;65.50;52162.75;5031836;28;19966;-68
2023/09/27 09:52:03;;;;;;;;;;;;;;;-144.99;66.07;52138.28;5031244;28;20004;-69
2023/09/27 09:54:36;;;;;;;;;;;;;;;-144.99;64.96;52101.59;5020125;28;19947;-69
2023/09/27 09:57:05;;;;;;;;;;;;;;;-144.99;63.88;52126.06;5026143;28;19991;-69
2023/09/27 09:59:35;;;;;;;;;;;;;;;-144.99;63.48;52154.59;5031424;28;19960;-69
2023/09/27 10:02:05;;;;;;;;;;;;;;;-144.99;64.04;52154.59;5032411;28;19953;-68
2023/09/27 10:04:31;;;;;;;;;;;;;;;-144.99;64.62;52183.13;5031825;28;20007;-68
2023/09/27 10:06:59;;;;;;;;;;;;;;;-144.99;66.16;52203.50;5031244;28;19948;-69
2023/09/27 10:09:28;;;;;;;;;;;;;;;-144.99;66.40;52234.09;5030029;28;19962;-69
2023/09/27 10:11:56;;;;;;;;;;;;;;;-144.99;67.09;52254.47;5031085;28;20057;-69
2023/09/27 10:14:24;;;;;;;;;;;;;;;-144.99;67.10;52236.13;5026246;28;20034;-69
2023/09/27 10:16:51;;;;;;;;;;;;;;;-144.99;67.71;52219.81;5026504;28;20034;-69
2023/09/27 10:19:25;;;;;;;;;;;;;;;-144.99;67.88;52217.78;5018357;28;19957;-69
2023/09/27 10:22:04;;;;;;;;;;;;;;;-144.99;67.88;52211.66;5022797;28;20033;-69
2023/09/27 10:24:30;;;;;;;;;;;;;;;-144.99;67.90;52248.34;5028260;28;19982;-68
2023/09/27 10:26:57;;;;;;;;;;;;;;;-144.99;68.29;52256.50;5019189;28;19948;-72
2023/09/27 10:29:24;;;;;;;;;;;;;;;-144.99;68.25;52209.63;5022169;28;20044;-71
2023/09/27 10:32:14;;;;;;;;;;;;;;;-144.99;68.41;52211.66;5030878;28;20426;-71
2023/09/27 10:34:41;;;;;;;;;;;;;;;-144.99;67.68;52215.75;5023257;28;19945;-71
2023/09/27 10:37:07;;;;;;;;;;;;;;;-144.99;68.25;52174.97;5026667;28;19987;-71
2023/09/27 10:39:34;;;;;;;;;;;;;;;-144.99;67.59;52191.28;5028391;28;19964;-70
2023/09/27 10:42:00;;;;;;;;;;;;;;;-144.99;67.83;52191.28;5027211;28;19987;-71
2023/09/27 10:44:29;;;;;;;;;;;;;;;-144.99;67.30;52191.28;5025821;28;19947;-71
2023/09/27 10:46:56;;;;;;;;;;;;;;;-144.99;66.84;52179.06;5019462;28;20327;-69
2023/09/27 10:49:24;;;;;;;;;;;;;;;-144.99;66.63;52183.13;5029965;28;19954;-71
2023/09/27 10:51:51;;;;;;;;;;;;;;;-144.99;65.82;52140.31;5030949;28;19984;-71
2023/09/27 10:54:22;;;;;;;;;;;;;;;-144.99;64.94;52130.13;5026169;28;20020;-70
2023/09/27 10:56:52;;;;;;;;;;;;;;;-144.99;63.80;52087.34;5028803;28;20164;-69
2023/09/27 10:59:22;;;;;;;;;;;;;;;-144.99;62.85;52024.16;5027874;28;19989;-71
2023/09/27 11:01:50;;;;;;;;;;;;;;;-144.99;62.04;52005.81;5024404;28;20041;-69
2023/09/27 11:04:20;;;;;;;;;;;;;;;-144.99;60.17;51995.63;5015971;28;20391;-70
2023/09/27 11:06:47;;;;;;;;;;;;;;;-144.99;58.95;52020.09;5036797;23;20448;-71
2023/09/27 11:09:13;;;;;;;;;;;;;;;-144.99;57.69;51934.50;5039227;28;20054;-71
2023/09/27 11:11:43;;;;;;;;;;;;;;;-144.99;56.52;51946.72;5021948;28;20003;-71
2023/09/27 11:14:09;;;;;;;;;;;;;;;-144.99;55.26;51932.44;5023701;28;20312;-71
2023/09/27 11:16:36;;;;;;;;;;;;;;;-144.99;55.10;51954.88;5021582;28;19948;-70
2023/09/27 11:19:04;;;;;;;;;;;;;;;-144.99;55.28;51930.41;5021738;28;19963;-71
2023/09/27 11:21:31;;;;;;;;;;;;;;;-144.99;55.51;51963.03;5024779;28;19939;-71
2023/09/27 11:23:59;;;;;;;;;;;;;;;-144.99;54.99;51971.16;5026624;28;19991;-71
2023/09/27 11:26:26;;;;;;;;;;;;;;;-144.99;54.64;51918.19;5023732;28;19974;-72
2023/09/27 11:28:59;;;;;;;;;;;;;;;-144.99;54.11;51942.63;5022654;28;20024;-71
2023/09/27 11:31:26;;;;;;;;;;;;;;;-144.99;53.82;51910.03;5026879;28;19962;-70
2023/09/27 11:33:53;;;;;;;;;;;;;;;-144.99;53.79;51910.03;5029191;28;19949;-71
2023/09/27 11:36:21;;;;;;;;;;;;;;;-144.99;53.55;51869.28;5030287;28;20272;-71
2023/09/27 11:38:50;;;;;;;;;;;;;;;-144.99;52.57;51885.56;5029641;28;20435;-71
2023/09/27 11:41:18;;;;;;;;;;;;;;;-144.99;52.62;51905.97;5027544;28;19943;-71
2023/09/27 11:43:45;;;;;;;;;;;;;;;-144.99;51.43;51920.22;5028860;28;20007;-73
2023/09/27 11:46:11;;;;;;;;;;;;;;;-144.99;52.13;51901.88;5028848;28;19948;-67
2023/09/27 11:48:39;;;;;;;;;;;;;;;-144.99;52.76;51971.16;5030367;28;20399;-75
2023/09/27 11:51:06;;;;;;;;;;;;;;;-144.99;52.92;51977.28;5030176;28;19992;-74
2023/09/27 11:53:33;;;;;;;;;;;;;;;-144.99;53.38;52048.63;5023909;28;20005;-73
2023/09/27 11:56:00;;;;;;;;;;;;;;;-144.99;54.48;52064.91;5023553;28;19945;-73
2023/09/27 11:58:27;;;;;;;;;;;;;;;-144.99;54.74;52030.28;5020810;28;19949;-71
2023/09/27 12:00:53;;;;;;;;;;;;;;;-144.99;55.28;52024.16;5029931;28;20015;-74
2023/09/27 12:03:20;;;;;;;;;;;;;;;-144.99;54.81;51967.09;5028751;28;20384;-71
2023/09/27 12:05:48;;;;;;;;;;;;;;;-144.99;54.12;51954.88;5025904;28;20446;-71
2023/09/27 12:08:14;;;;;;;;;;;;;;;-144.99;53.61;51901.88;5029789;28;19953;-72
2023/09/27 12:10:42;;;;;;;;;;;;;;;-144.99;52.66;51877.44;5029599;28;20271;-70
2023/09/27 12:13:08;;;;;;;;;;;;;;;-144.99;52.06;51828.50;5026829;28;20442;-72
2023/09/27 12:15:35;;;;;;;;;;;;;;;-144.99;51.39;51818.31;5029708;28;19946;-72
2023/09/27 12:18:01;;;;;;;;;;;;;;;-144.99;50.75;51834.63;5029546;28;19996;-72
2023/09/27 12:20:30;;;;;;;;;;;;;;;-144.99;50.44;51879.47;5029057;28;19960;-72
2023/09/27 12:22:57;;;;;;;;;;;;;;;-144.99;50.33;51910.03;5029661;28;20457;-72